createdAt,value
2023-04-12T00:03:36.605Z,14.20
2023-04-12T00:06:07.381Z,14.40
2023-04-12T00:08:37.406Z,15.30
2023-04-12T00:11:06.341Z,17.40
2023-04-12T00:13:35.473Z,16.90
2023-04-12T00:16:05.508Z,17.50
2023-04-12T00:18:33.712Z,15.70
2023-04-12T00:21:02.473Z,18.00
2023-04-12T00:23:31.334Z,16.60
2023-04-12T00:25:59.957Z,18.00
2023-04-12T00:28:28.725Z,16.80
2023-04-12T00:30:58.479Z,18.50
2023-04-12T00:33:27.399Z,17.20
2023-04-12T00:35:56.229Z,19.50
2023-04-12T00:38:25.281Z,18.80
2023-04-12T00:40:53.817Z,20.60
2023-04-12T00:43:22.677Z,18.50
2023-04-12T00:45:51.539Z,18.40
2023-04-12T00:48:20.950Z,20.70
2023-04-12T00:50:50.046Z,18.00
2023-04-12T00:53:19.254Z,19.40
2023-04-12T00:55:50.373Z,18.00
2023-04-12T00:58:20.275Z,18.40
2023-04-12T01:00:49.208Z,21.90
2023-04-12T01:03:22.369Z,20.00
2023-04-12T01:05:55.988Z,20.20
2023-04-12T01:08:24.158Z,23.20
2023-04-12T01:11:05.802Z,27.10
2023-04-12T01:13:59.712Z,24.60
2023-04-12T01:16:36.128Z,23.20
2023-04-12T01:19:18.564Z,21.80
2023-04-12T01:22:02.275Z,23.00
2023-04-12T01:24:55.640Z,22.10
2023-04-12T01:27:53.514Z,22.10
2023-04-12T01:30:26.823Z,20.00
2023-04-12T01:32:59.808Z,19.30
2023-04-12T01:35:34.967Z,22.00
2023-04-12T01:38:04.680Z,20.90
2023-04-12T01:40:36.211Z,21.40
2023-04-12T01:43:05.178Z,20.80
2023-04-12T01:45:34.785Z,21.70
2023-04-12T01:48:06.400Z,21.00
2023-04-12T01:50:38.324Z,20.70
2023-04-12T01:53:14.604Z,16.40
2023-04-12T01:55:45.536Z,15.80
2023-04-12T01:58:17.732Z,16.90
2023-04-12T02:00:47.064Z,16.20
2023-04-12T02:03:15.710Z,22.50
2023-04-12T02:05:45.339Z,24.00
2023-04-12T02:08:14.435Z,17.90
2023-04-12T02:10:44.403Z,20.10
2023-04-12T02:13:13.207Z,21.10
2023-04-12T02:15:41.329Z,22.30
2023-04-12T02:18:10.750Z,20.60
2023-04-12T02:20:39.832Z,22.50
2023-04-12T02:23:08.004Z,19.40
2023-04-12T02:25:36.449Z,19.30
2023-04-12T02:28:05.556Z,19.70
2023-04-12T02:30:33.867Z,18.60
2023-04-12T02:33:02.578Z,19.10
2023-04-12T02:35:33.636Z,22.80
2023-04-12T02:38:03.009Z,24.60
2023-04-12T02:40:31.578Z,19.60
2023-04-12T02:43:00.951Z,26.90
2023-04-12T02:45:29.573Z,17.40
2023-04-12T02:47:57.978Z,17.30
2023-04-12T02:50:26.758Z,18.70
2023-04-12T02:52:55.436Z,20.60
2023-04-12T02:55:23.601Z,22.20
2023-04-12T02:57:51.794Z,20.40
2023-04-12T03:00:20.534Z,22.60
2023-04-12T03:02:50.165Z,21.70
2023-04-12T03:05:22.772Z,23.50
2023-04-12T03:07:51.364Z,24.10
2023-04-12T03:10:19.529Z,18.80
2023-04-12T03:12:48.310Z,16.10
2023-04-12T03:15:16.462Z,18.90
2023-04-12T03:17:44.821Z,25.30
2023-04-12T03:20:13.884Z,15.90
2023-04-12T03:22:42.080Z,20.10
2023-04-12T03:25:10.558Z,19.50
2023-04-12T03:27:38.756Z,18.30
2023-04-12T03:30:08.697Z,18.80
2023-04-12T03:32:36.873Z,20.00
2023-04-12T03:35:06.263Z,20.70
2023-04-12T03:37:35.176Z,23.80
2023-04-12T03:40:03.582Z,21.60
2023-04-12T03:42:33.764Z,23.70
2023-04-12T03:45:03.105Z,29.50
2023-04-12T03:47:32.153Z,29.60
2023-04-12T03:50:11.631Z,30.30
2023-04-12T03:52:41.003Z,30.70
2023-04-12T03:55:09.360Z,34.30
2023-04-12T03:57:37.565Z,29.10
2023-04-12T04:00:07.525Z,32.40
2023-04-12T04:02:36.453Z,33.70
2023-04-12T04:05:06.042Z,30.00
2023-04-12T04:07:34.164Z,32.30
2023-04-12T04:10:03.068Z,27.60
2023-04-12T04:12:31.684Z,30.50
2023-04-12T04:14:59.873Z,29.70
2023-04-12T04:17:28.441Z,28.10
2023-04-12T04:19:57.077Z,31.60
2023-04-12T04:22:25.648Z,29.60
2023-04-12T04:24:54.634Z,31.70
2023-04-12T04:27:23.593Z,30.00
2023-04-12T04:29:52.789Z,29.20
2023-04-12T04:32:21.566Z,38.60
2023-04-12T04:34:50.362Z,32.80
2023-04-12T04:37:19.134Z,33.20
2023-04-12T04:39:47.942Z,33.00
2023-04-12T04:42:17.471Z,27.90
2023-04-12T04:44:46.722Z,30.60
2023-04-12T04:47:14.769Z,32.00
2023-04-12T04:49:45.207Z,30.40
2023-04-12T04:52:14.643Z,24.00
2023-04-12T04:54:43.251Z,26.30
2023-04-12T04:57:11.397Z,23.80
2023-04-12T04:59:39.503Z,19.10
2023-04-12T05:02:08.614Z,16.50
2023-04-12T05:04:37.970Z,14.70
2023-04-12T05:07:06.129Z,15.70
2023-04-12T05:09:34.709Z,18.80
2023-04-12T05:12:03.095Z,15.30
2023-04-12T05:14:45.476Z,21.40
2023-04-12T05:17:15.774Z,18.30
2023-04-12T05:19:44.069Z,13.20
2023-04-12T05:22:12.962Z,12.00
2023-04-12T05:24:41.677Z,16.20
2023-04-12T05:27:09.789Z,14.40
2023-04-12T05:29:38.371Z,15.90
2023-04-12T05:32:06.809Z,12.30
2023-04-12T05:34:35.101Z,12.70
2023-04-12T05:37:04.616Z,10.80
2023-04-12T05:39:33.974Z,15.50
2023-04-12T05:42:02.556Z,13.10
2023-04-12T05:44:31.146Z,18.10
2023-04-12T05:46:59.730Z,14.50
2023-04-12T05:49:30.457Z,16.20
2023-04-12T05:51:59.126Z,9.40
2023-04-12T05:54:27.637Z,10.20
2023-04-12T05:56:56.225Z,12.80
2023-04-12T05:59:24.868Z,15.30
2023-04-12T06:01:54.080Z,12.20
2023-04-12T06:04:22.846Z,13.10
2023-04-12T06:06:52.214Z,14.60
2023-04-12T06:09:21.154Z,13.90
2023-04-12T06:11:49.454Z,12.50
2023-04-12T06:14:18.091Z,12.60
2023-04-12T06:16:46.954Z,20.70
2023-04-12T06:19:16.031Z,14.50
2023-04-12T06:21:44.763Z,10.20
2023-04-12T06:24:13.144Z,6.20
2023-04-12T06:26:42.553Z,10.00
2023-04-12T06:29:10.715Z,9.40
2023-04-12T06:31:40.408Z,10.80
2023-04-12T06:34:09.804Z,7.00
2023-04-12T06:36:38.194Z,10.30
2023-04-12T06:39:07.411Z,9.10
2023-04-12T06:41:35.953Z,6.20
2023-04-12T06:44:04.225Z,10.70
2023-04-12T06:46:33.179Z,9.80
2023-04-12T06:49:01.742Z,7.20
2023-04-12T06:51:31.135Z,9.90
2023-04-12T06:54:00.077Z,12.50
2023-04-12T06:56:28.734Z,13.30
2023-04-12T06:58:57.044Z,11.50
2023-04-12T07:01:26.467Z,12.00
2023-04-12T07:03:54.785Z,17.60
2023-04-12T07:06:26.115Z,11.50
2023-04-12T07:08:55.008Z,19.40
2023-04-12T07:11:23.756Z,11.90
2023-04-12T07:13:53.175Z,15.10
2023-04-12T07:16:21.662Z,12.80
2023-04-12T07:18:49.988Z,13.00
2023-04-12T07:21:18.955Z,8.40
2023-04-12T07:23:51.947Z,9.00
2023-04-12T07:26:20.496Z,12.50
2023-04-12T07:28:49.197Z,4.10
2023-04-12T07:31:17.803Z,10.60
2023-04-12T07:33:46.684Z,10.90
2023-04-12T07:36:16.540Z,12.10
2023-04-12T07:38:45.832Z,9.60
2023-04-12T07:41:14.636Z,11.10
2023-04-12T07:43:43.138Z,7.90
2023-04-12T07:46:12.855Z,9.70
2023-04-12T07:48:41.419Z,12.30
2023-04-12T07:51:10.513Z,9.60
2023-04-12T07:53:39.320Z,17.40
2023-04-12T07:56:08.610Z,13.40
2023-04-12T07:58:36.668Z,10.70
2023-04-12T08:01:06.253Z,9.20
2023-04-12T08:03:35.603Z,12.90
2023-04-12T08:06:05.938Z,10.20
2023-04-12T08:08:35.139Z,9.60
2023-04-12T08:11:04.422Z,10.70
2023-04-12T08:13:34.595Z,9.80
2023-04-12T08:16:03.350Z,6.90
2023-04-12T08:18:31.743Z,11.20
2023-04-12T08:20:59.829Z,9.80
2023-04-12T08:23:29.958Z,14.80
2023-04-12T08:25:58.121Z,18.80
2023-04-12T08:28:26.439Z,16.30
2023-04-12T08:30:54.677Z,12.00
2023-04-12T08:33:23.356Z,6.90
2023-04-12T08:35:52.108Z,8.40
2023-04-12T08:38:25.416Z,9.60
2023-04-12T08:40:59.990Z,5.40
2023-04-12T08:43:29.905Z,11.90
2023-04-12T08:45:59.459Z,6.90
2023-04-12T08:48:28.502Z,10.40
2023-04-12T08:50:57.629Z,9.80
2023-04-12T08:53:27.428Z,10.00
2023-04-12T08:55:56.286Z,13.80
2023-04-12T08:58:25.542Z,8.60
2023-04-12T09:00:54.665Z,12.00
2023-04-12T09:03:23.553Z,11.60
2023-04-12T09:05:52.362Z,9.10
2023-04-12T09:08:20.988Z,12.80
2023-04-12T09:10:49.537Z,12.60
2023-04-12T09:13:32.284Z,10.70
2023-04-12T09:16:02.304Z,9.50
2023-04-12T09:18:49.176Z,11.90
2023-04-12T09:21:18.659Z,15.60
2023-04-12T09:24:13.371Z,14.30
2023-04-12T09:26:43.056Z,10.60
2023-04-12T09:29:24.718Z,10.10
2023-04-12T09:32:03.093Z,14.30
2023-04-12T09:34:33.716Z,15.40
2023-04-12T09:37:16.238Z,18.70
2023-04-12T09:39:45.123Z,13.70
2023-04-12T09:42:29.835Z,16.80
2023-04-12T09:45:02.047Z,14.00
2023-04-12T09:47:40.700Z,19.10
2023-04-12T09:50:10.237Z,14.40
2023-04-12T09:52:39.551Z,16.80
2023-04-12T09:55:12.674Z,12.20
2023-04-12T09:57:45.110Z,15.80
2023-04-12T10:00:14.959Z,18.50
2023-04-12T10:02:47.701Z,22.10
2023-04-12T10:05:24.531Z,17.70
2023-04-12T10:07:54.963Z,23.20
2023-04-12T10:10:24.108Z,20.30
2023-04-12T10:12:54.107Z,21.20
2023-04-12T10:15:22.278Z,17.60
2023-04-12T10:17:53.368Z,25.50
2023-04-12T10:20:24.869Z,28.70
2023-04-12T10:22:57.277Z,25.50
2023-04-12T10:25:27.572Z,25.80
2023-04-12T10:27:56.801Z,35.60
2023-04-12T10:30:26.525Z,32.30
2023-04-12T10:33:04.613Z,35.30
2023-04-12T10:36:01.279Z,35.40
2023-04-12T10:38:44.766Z,38.70
2023-04-12T10:41:20.865Z,37.10
2023-04-12T10:43:51.421Z,41.00
2023-04-12T10:46:45.984Z,32.70
2023-04-12T10:49:15.690Z,42.60
2023-04-12T10:52:12.507Z,36.30
2023-04-12T10:54:41.175Z,27.20
2023-04-12T10:57:45.526Z,38.20
2023-04-12T11:00:15.035Z,34.10
2023-04-12T11:03:08.850Z,37.30
2023-04-12T11:05:57.421Z,34.20
2023-04-12T11:08:27.416Z,38.60
2023-04-12T11:11:03.230Z,30.70
2023-04-12T11:13:39.443Z,33.40
2023-04-12T11:16:08.362Z,36.70
2023-04-12T11:18:37.383Z,33.00
2023-04-12T11:21:06.600Z,24.20
2023-04-12T11:23:35.598Z,29.80
2023-04-12T11:26:04.396Z,34.20
2023-04-12T11:28:34.744Z,31.50
2023-04-12T11:31:04.246Z,29.60
2023-04-12T11:33:39.629Z,33.80
2023-04-12T11:36:11.684Z,28.90
2023-04-12T11:38:40.529Z,22.60
2023-04-12T11:41:09.562Z,17.50
2023-04-12T11:43:38.766Z,22.80
2023-04-12T11:46:08.004Z,22.60
2023-04-12T11:48:36.858Z,24.10
2023-04-12T11:51:22.318Z,30.90
2023-04-12T11:53:55.456Z,32.10
2023-04-12T11:56:24.638Z,31.50
2023-04-12T11:58:52.658Z,34.80
2023-04-12T12:01:23.019Z,29.80
2023-04-12T12:03:52.024Z,31.30
2023-04-12T12:06:21.775Z,29.20
2023-04-12T12:08:51.426Z,30.20
2023-04-12T12:11:23.820Z,31.00
2023-04-12T12:13:54.613Z,30.10
2023-04-12T12:16:27.855Z,26.70
2023-04-12T12:18:57.970Z,23.00
2023-04-12T12:21:26.481Z,31.20
2023-04-12T12:23:57.139Z,24.90
2023-04-12T12:26:27.941Z,29.80
2023-04-12T12:28:58.257Z,32.10
2023-04-12T12:31:28.381Z,27.80
2023-04-12T12:33:59.460Z,32.20
2023-04-12T12:36:33.483Z,33.30
2023-04-12T12:39:13.073Z,29.70
2023-04-12T12:41:42.438Z,27.00
2023-04-12T12:44:11.749Z,32.80
2023-04-12T12:46:53.471Z,34.10
2023-04-12T12:49:23.583Z,28.90
2023-04-12T12:51:52.554Z,48.10
2023-04-12T12:54:38.644Z,33.10
2023-04-12T12:57:11.139Z,28.60
2023-04-12T12:59:42.897Z,30.60
2023-04-12T13:02:11.371Z,26.70
2023-04-12T13:04:40.319Z,33.50
2023-04-12T13:07:08.526Z,29.70
2023-04-12T13:09:36.717Z,28.50
2023-04-12T13:12:05.207Z,28.10
2023-04-12T13:14:33.463Z,36.10
2023-04-12T13:17:02.364Z,27.90
2023-04-12T13:19:30.874Z,23.20
2023-04-12T13:21:59.707Z,25.90
2023-04-12T13:24:28.457Z,25.20
2023-04-12T13:26:56.962Z,24.30
2023-04-12T13:29:25.627Z,30.00
2023-04-12T13:31:55.153Z,27.00
2023-04-12T13:34:23.851Z,24.00
2023-04-12T13:36:52.062Z,25.60
2023-04-12T13:39:21.306Z,29.70
2023-04-12T13:41:49.447Z,27.30
2023-04-12T13:44:18.015Z,31.70
2023-04-12T13:46:47.013Z,26.40
2023-04-12T13:49:15.702Z,25.70
2023-04-12T13:51:44.389Z,31.90
2023-04-12T13:54:12.774Z,24.70
2023-04-12T13:56:41.046Z,25.60
2023-04-12T13:59:09.764Z,30.60
2023-04-12T14:01:40.101Z,28.90
2023-04-12T14:04:09.036Z,18.20
2023-04-12T14:06:39.095Z,20.20
2023-04-12T14:09:07.749Z,23.50
2023-04-12T14:11:47.406Z,16.80
2023-04-12T14:14:16.802Z,22.30
2023-04-12T14:16:46.687Z,25.20
2023-04-12T14:19:16.504Z,21.50
2023-04-12T14:21:45.660Z,23.70
2023-04-12T14:24:19.122Z,16.10
2023-04-12T14:26:48.421Z,15.60
2023-04-12T14:29:17.251Z,21.70
2023-04-12T14:31:46.921Z,17.80
2023-04-12T14:34:15.332Z,13.80
2023-04-12T14:36:43.970Z,25.60
2023-04-12T14:39:14.053Z,19.60
2023-04-12T14:41:43.328Z,20.20
2023-04-12T14:44:12.027Z,19.20
2023-04-12T14:46:40.860Z,19.40
2023-04-12T14:49:09.124Z,22.90
2023-04-12T14:51:37.805Z,18.30
2023-04-12T14:54:07.193Z,29.80
2023-04-12T14:56:44.574Z,16.20
2023-04-12T14:59:19.352Z,19.20
2023-04-12T15:01:48.050Z,18.90
2023-04-12T15:04:17.170Z,20.00
2023-04-12T15:06:45.646Z,17.20
2023-04-12T15:09:14.712Z,17.60
2023-04-12T15:11:43.853Z,29.20
2023-04-12T15:14:15.219Z,19.00
2023-04-12T15:16:45.837Z,20.70
2023-04-12T15:19:20.212Z,28.30
2023-04-12T15:21:53.250Z,23.50
2023-04-12T15:24:22.753Z,22.90
2023-04-12T15:26:52.856Z,22.10
2023-04-12T15:29:21.670Z,12.10
2023-04-12T15:31:50.529Z,19.70
2023-04-12T15:34:19.360Z,33.10
2023-04-12T15:36:49.217Z,16.50
2023-04-12T15:39:19.604Z,24.40
2023-04-12T15:41:48.273Z,24.10
2023-04-12T15:44:16.659Z,24.50
2023-04-12T15:46:53.289Z,30.10
2023-04-12T15:49:28.766Z,21.30
2023-04-12T15:51:56.995Z,29.70
2023-04-12T15:54:26.320Z,21.70
2023-04-12T15:56:55.002Z,19.70
2023-04-12T15:59:23.706Z,26.40
2023-04-12T16:01:53.165Z,27.40
2023-04-12T16:04:22.784Z,19.00
2023-04-12T16:06:51.337Z,25.50
2023-04-12T16:09:20.824Z,21.00
2023-04-12T16:11:50.166Z,26.90
2023-04-12T16:14:20.091Z,24.50
2023-04-12T16:16:48.758Z,19.30
2023-04-12T16:19:18.554Z,26.20
2023-04-12T16:21:47.645Z,24.40
2023-04-12T16:24:16.551Z,27.80
2023-04-12T16:26:45.387Z,19.10
2023-04-12T16:29:14.693Z,20.70
2023-04-12T16:31:43.417Z,20.70
2023-04-12T16:34:12.345Z,28.00
2023-04-12T16:36:41.816Z,26.00
2023-04-12T16:39:10.560Z,23.30
2023-04-12T16:41:40.012Z,27.80
2023-04-12T16:44:09.002Z,33.90
2023-04-12T16:46:38.545Z,37.60
2023-04-12T16:49:06.873Z,27.90
2023-04-12T16:51:37.513Z,24.30
2023-04-12T16:54:06.315Z,29.10
2023-04-12T16:56:34.898Z,29.50
2023-04-12T16:59:03.876Z,29.50
2023-04-12T17:01:31.923Z,28.30
2023-04-12T17:04:01.734Z,26.00
2023-04-12T17:06:31.495Z,24.30
2023-04-12T17:09:00.635Z,29.80
2023-04-12T17:11:28.887Z,25.90
2023-04-12T17:13:57.811Z,39.40
2023-04-12T17:16:26.355Z,33.90
2023-04-12T17:18:55.001Z,23.90
2023-04-12T17:21:24.287Z,28.50
2023-04-12T17:23:53.648Z,31.70
2023-04-12T17:26:23.108Z,32.80
2023-04-12T17:28:52.236Z,27.90
2023-04-12T17:31:21.922Z,24.40
2023-04-12T17:33:50.759Z,36.80
2023-04-12T17:36:20.839Z,30.00
2023-04-12T17:38:49.513Z,26.90
2023-04-12T17:41:17.902Z,32.30
2023-04-12T17:43:47.265Z,26.10
2023-04-12T17:46:16.106Z,28.90
2023-04-12T17:48:44.431Z,23.30
2023-04-12T17:51:13.492Z,29.10
2023-04-12T17:53:42.603Z,20.40
2023-04-12T17:56:11.533Z,26.60
2023-04-12T17:58:39.850Z,24.70
2023-04-12T18:01:08.534Z,33.90
2023-04-12T18:03:40.298Z,23.40
2023-04-12T18:06:08.724Z,20.10
2023-04-12T18:08:37.719Z,22.60
2023-04-12T18:11:07.175Z,18.20
2023-04-12T18:13:35.250Z,18.10
2023-04-12T18:16:04.640Z,18.00
2023-04-12T18:18:34.191Z,13.10
2023-04-12T18:21:04.774Z,18.90
2023-04-12T18:23:34.141Z,16.50
2023-04-12T18:26:05.528Z,13.70
2023-04-12T18:28:34.543Z,7.20
2023-04-12T18:31:02.696Z,7.40
2023-04-12T18:33:32.080Z,9.40
2023-04-12T18:36:00.786Z,12.30
2023-04-12T18:38:29.018Z,17.10
2023-04-12T18:40:57.213Z,25.00
2023-04-12T18:43:26.031Z,41.40
2023-04-12T18:45:55.160Z,27.10
2023-04-12T18:48:23.998Z,33.80
2023-04-12T18:50:52.773Z,23.40
2023-04-12T18:53:20.921Z,13.70
2023-04-12T18:55:49.138Z,9.60
2023-04-12T18:58:17.329Z,8.20
2023-04-12T19:00:45.626Z,10.20
2023-04-12T19:03:14.193Z,12.30
2023-04-12T19:05:44.100Z,10.30
2023-04-12T19:08:12.728Z,9.40
2023-04-12T19:10:41.732Z,4.30
2023-04-12T19:13:10.436Z,8.70
2023-04-12T19:15:38.758Z,4.60
2023-04-12T19:18:07.499Z,15.10
2023-04-12T19:20:36.271Z,10.50
2023-04-12T19:23:06.618Z,5.10
2023-04-12T19:25:35.378Z,10.50
2023-04-12T19:28:04.313Z,7.60
2023-04-12T19:30:33.623Z,6.30
2023-04-12T19:33:02.070Z,7.20
2023-04-12T19:35:32.277Z,4.50
2023-04-12T19:38:04.747Z,6.50
2023-04-12T19:40:33.517Z,6.70
2023-04-12T19:43:01.823Z,3.80
2023-04-12T19:45:30.207Z,3.40
2023-04-12T19:47:58.995Z,9.90
2023-04-12T19:50:27.372Z,7.00
2023-04-12T19:52:56.352Z,7.40
2023-04-12T19:55:25.337Z,8.70
2023-04-12T19:57:54.626Z,17.20
2023-04-12T20:00:23.366Z,6.90
2023-04-12T20:02:54.623Z,4.50
2023-04-12T20:05:23.974Z,4.30
2023-04-12T20:07:52.874Z,7.80
2023-04-12T20:10:23.030Z,3.00
2023-04-12T20:12:51.287Z,4.80
2023-04-12T20:15:20.774Z,5.00
2023-04-12T20:17:50.234Z,5.20
2023-04-12T20:20:19.207Z,5.40
2023-04-12T20:22:48.910Z,10.60
2023-04-12T20:25:18.695Z,3.90
2023-04-12T20:27:47.922Z,7.50
2023-04-12T20:30:16.603Z,5.10
2023-04-12T20:32:45.293Z,7.00
2023-04-12T20:35:13.844Z,5.40
2023-04-12T20:37:42.638Z,7.30
2023-04-12T20:40:12.014Z,4.10
2023-04-12T20:42:40.630Z,8.20
2023-04-12T20:45:09.717Z,5.20
2023-04-12T20:47:38.321Z,3.20
2023-04-12T20:50:07.545Z,6.40
2023-04-12T20:52:37.145Z,6.90
2023-04-12T20:55:06.715Z,2.90
2023-04-12T20:57:35.301Z,3.30
2023-04-12T21:00:03.913Z,2.60
2023-04-12T21:02:33.849Z,6.80
2023-04-12T21:05:02.079Z,2.90
2023-04-12T21:07:30.885Z,3.80
2023-04-12T21:10:00.607Z,5.10
2023-04-12T21:12:29.290Z,5.70
2023-04-12T21:14:57.635Z,3.40
2023-04-12T21:17:26.667Z,4.40
2023-04-12T21:19:55.581Z,2.10
2023-04-12T21:22:24.489Z,4.10
2023-04-12T21:24:53.264Z,9.30
2023-04-12T21:27:21.274Z,9.00
2023-04-12T21:29:49.602Z,4.00
2023-04-12T21:32:18.299Z,4.60
2023-04-12T21:34:47.448Z,4.30
2023-04-12T21:37:16.197Z,4.30
2023-04-12T21:39:44.766Z,8.10
2023-04-12T21:42:13.830Z,3.50
2023-04-12T21:44:42.444Z,2.70
2023-04-12T21:47:11.026Z,1.60
2023-04-12T21:49:39.594Z,3.50
2023-04-12T21:52:08.872Z,2.70
2023-04-12T21:54:37.274Z,2.50
2023-04-12T21:57:05.992Z,4.20
2023-04-12T21:59:34.760Z,7.50
2023-04-12T22:02:04.729Z,7.70
2023-04-12T22:04:33.777Z,3.60
2023-04-12T22:07:03.162Z,7.20
2023-04-12T22:09:31.952Z,19.50
2023-04-12T22:12:01.678Z,4.60
2023-04-12T22:14:30.720Z,15.00
2023-04-12T22:16:59.216Z,3.40
2023-04-12T22:19:27.939Z,11.00
2023-04-12T22:21:56.243Z,20.10
2023-04-12T22:24:25.538Z,20.00
2023-04-12T22:26:53.782Z,12.20
2023-04-12T22:29:24.480Z,9.50
2023-04-12T22:31:53.005Z,3.60
2023-04-12T22:34:22.049Z,4.50
2023-04-12T22:36:51.238Z,4.20
2023-04-12T22:39:20.848Z,10.30
2023-04-12T22:41:50.752Z,8.50
2023-04-12T22:44:23.153Z,5.80
2023-04-12T22:46:54.412Z,6.00
2023-04-12T22:49:27.564Z,4.30
2023-04-12T22:51:56.827Z,8.60
2023-04-12T22:54:26.344Z,5.80
2023-04-12T22:56:54.715Z,3.10
2023-04-12T22:59:23.067Z,3.80
2023-04-12T23:01:51.769Z,2.00
2023-04-12T23:04:20.957Z,3.30
2023-04-12T23:06:53.544Z,6.90
2023-04-12T23:09:22.499Z,7.10
2023-04-12T23:11:50.816Z,4.90
2023-04-12T23:14:20.234Z,2.80
2023-04-12T23:16:49.474Z,4.20
2023-04-12T23:19:18.067Z,4.00
2023-04-12T23:21:47.428Z,3.30
2023-04-12T23:24:16.096Z,3.30
2023-04-12T23:26:44.423Z,3.60
2023-04-12T23:29:13.692Z,6.20
2023-04-12T23:31:42.829Z,3.00
2023-04-12T23:34:11.028Z,8.10
2023-04-12T23:36:39.621Z,1.70
2023-04-12T23:39:08.632Z,6.60
2023-04-12T23:41:37.433Z,4.40
2023-04-12T23:44:05.683Z,2.20
2023-04-12T23:46:34.970Z,3.30
2023-04-12T23:49:03.191Z,2.30
2023-04-12T23:51:31.744Z,2.90
2023-04-12T23:54:01.669Z,2.90
2023-04-12T23:56:30.374Z,9.00
2023-04-12T23:58:58.717Z,8.30
